Time;durP1;ratioP1;P1;durP2;ratioP2;P2;SDS_P1;SDS_P2;PMS_P1;PMS_P2;Temp;Humidity;BMP_temperature;BMP_pressure;BME280_temperature;BME280_humidity;BME280_pressure;Samples;Min_cycle;Max_cycle;Signal;HPM_P1;HPM_P2
2023/04/13 07:01:34;;;;;;;4.63;1.20;;;9.60;99.90;10.50;99736.00;;;;6309364;22;20223;-64
2023/04/13 07:04:25;;;;;;;3.03;1.10;;;9.50;99.90;11.30;99746.00;;;;6309260;22;20151;-63
2023/04/13 07:06:51;;;;;;;0.20;0.20;;;9.70;99.90;12.10;99757.00;;;;6282366;22;20183;-64
2023/04/13 07:09:49;;;;;;;4.00;0.87;;;10.00;99.90;11.70;99687.00;;;;6282208;22;20159;-63
2023/04/13 07:12:25;;;;;;;3.23;1.10;;;9.90;99.90;11.20;99766.00;;;;6282273;22;20170;-64
2023/04/13 07:15:15;;;;;;;1.93;1.20;;;9.90;99.90;11.20;99760.00;;;;6309107;22;20571;-63
2023/04/13 07:17:42;;;;;;;4.40;2.23;;;9.80;99.90;10.80;99775.00;;;;6302167;22;20151;-63
2023/04/13 07:20:08;;;;;;;5.80;1.53;;;9.60;99.90;10.80;99769.00;;;;6274663;22;20567;-65
2023/04/13 07:22:37;;;;;;;3.27;1.10;;;9.60;99.90;11.00;99751.00;;;;6302425;22;20163;-65
2023/04/13 07:25:04;;;;;;;11.80;1.80;;;9.80;99.90;11.20;99797.00;;;;6308740;22;20146;-65
2023/04/13 07:27:53;;;;;;;0.20;0.20;;;9.80;99.90;12.30;99810.00;;;;6256351;22;20206;-65
2023/04/13 07:30:19;;;;;;;0.20;0.20;;;10.20;99.90;11.30;99803.00;;;;6259069;22;20644;-64
2023/04/13 07:32:53;;;;;;;2.97;0.50;;;10.00;99.90;11.20;99799.00;;;;6281849;22;20251;-64
2023/04/13 07:35:27;;;;;;;0.53;0.40;;;9.80;99.90;12.50;99825.00;;;;6256314;22;20195;-65
2023/04/13 07:38:07;;;;;;;3.23;1.33;;;10.40;99.90;12.00;99810.00;;;;6309188;22;20140;-65
2023/04/13 07:40:39;;;;;;;0.13;0.13;;;10.30;99.90;12.60;99826.00;;;;6282816;22;20549;-65
2023/04/13 07:43:30;;;;;;;3.40;1.63;;;10.70;99.90;12.30;99818.00;;;;6281876;22;20147;-65
2023/04/13 07:46:08;;;;;;;6.00;1.23;;;10.70;99.90;12.00;99840.00;;;;6308950;22;20567;-65
2023/04/13 07:48:37;;;;;;;0.80;0.70;;;10.60;99.90;11.80;99823.00;;;;6255827;22;20171;-65
2023/04/13 07:51:08;;;;;;;1.27;0.73;;;10.50;99.90;12.60;99856.00;;;;6282588;22;20165;-71
2023/04/13 07:53:34;;;;;;;1.70;1.43;;;10.90;99.90;12.00;99851.00;;;;6280460;22;20190;-66
2023/04/13 07:56:00;;;;;;;4.67;1.20;;;10.80;99.90;11.90;99849.00;;;;6281547;22;20229;-71
2023/04/13 07:58:26;;;;;;;0.63;0.50;;;10.70;99.90;12.10;99851.00;;;;6308908;22;20178;-67
2023/04/13 08:01:35;;;;;;;2.07;0.70;;;10.60;99.90;11.30;99853.00;;;;6275849;22;20224;-67
2023/04/13 08:04:01;;;;;;;0.47;0.37;;;10.60;99.90;11.60;99777.00;;;;6274308;22;20535;-67
2023/04/13 08:06:37;;;;;;;2.87;1.30;;;10.50;99.90;11.70;99857.00;;;;6277897;22;20138;-71
2023/04/13 08:09:11;;;;;;;4.07;1.43;;;10.60;99.90;11.50;99782.00;;;;6250415;22;20489;-69
2023/04/13 08:11:41;;;;;;;5.27;1.70;;;10.40;99.90;11.00;99858.00;;;;6249520;22;20731;-65
2023/04/13 08:14:16;;;;;;;11.37;1.83;;;10.20;99.90;11.10;99874.00;;;;6276078;22;20156;-69
2023/04/13 08:16:42;;;;;;;2.97;0.83;;;10.20;99.90;11.90;99894.00;;;;6275700;22;20228;-64
2023/04/13 08:19:19;;;;;;;4.40;1.70;;;10.40;99.90;11.50;99892.00;;;;6277946;22;20169;-67
2023/04/13 08:21:45;;;;;;;2.27;1.07;;;10.40;99.90;12.20;99899.00;;;;6278132;22;20151;-67
2023/04/13 08:24:16;;;;;;;2.03;0.60;;;10.60;99.90;11.90;99841.00;;;;6275485;22;20210;-66
2023/04/13 08:26:43;;;;;;;7.87;1.10;;;10.50;99.90;11.20;99906.00;;;;6276064;22;20149;-68
2023/04/13 08:29:19;;;;;;;5.17;1.77;;;10.30;99.90;11.60;99890.00;;;;6275817;22;20223;-66
2023/04/13 08:31:50;;;;;;;2.47;1.23;;;10.40;99.90;11.70;99916.00;;;;6276726;22;20141;-69
2023/04/13 08:34:17;;;;;;;0.60;0.60;;;10.50;99.90;12.30;99923.00;;;;6275783;22;20469;-76
2023/04/13 08:36:46;;;;;;;0.60;0.60;;;10.70;99.90;12.00;99903.00;;;;6276132;22;20142;-72
2023/04/13 08:39:36;;;;;;;4.73;0.30;;;10.70;99.90;13.30;99925.00;;;;6276379;22;20216;-78
2023/04/13 08:42:14;;;;;;;7.30;2.03;;;11.40;99.90;12.30;99899.00;;;;6276445;22;20139;-75
2023/04/13 08:44:51;;;;;;;4.57;1.17;;;11.30;99.90;12.60;99926.00;;;;6276244;22;20168;-73
2023/04/13 08:47:48;;;;;;;0.57;0.57;;;11.30;99.90;12.20;99944.00;;;;6275934;22;20144;-71
2023/04/13 08:50:24;;;;;;;7.30;2.03;;;10.80;99.90;12.20;99943.00;;;;6249732;22;20548;-73
2023/04/13 08:52:58;;;;;;;2.30;1.77;;;10.80;99.90;12.00;99926.00;;;;6275754;22;20172;-73
2023/04/13 08:55:46;;;;;;;4.93;2.03;;;10.80;99.90;11.80;99937.00;;;;6250568;22;20149;-74
2023/04/13 08:58:45;;;;;;;4.33;1.90;;;10.60;99.90;11.40;99955.00;;;;6274690;22;20204;-73
2023/04/13 09:01:39;;;;;;;1.83;1.50;;;10.50;99.90;12.40;99964.00;;;;6250818;22;20173;-72
2023/04/13 09:04:30;;;;;;;5.80;1.23;;;10.70;99.90;12.30;99958.00;;;;6158709;23;20169;-71
2023/04/13 09:07:06;;;;;;;1.57;1.47;;;11.00;99.90;12.10;99951.00;;;;6173830;23;20586;-73
2023/04/13 09:10:06;;;;;;;1.10;1.00;;;10.60;99.90;11.90;99977.00;;;;6251454;22;20723;-72
2023/04/13 09:12:35;;;;;;;11.83;3.03;;;10.60;99.90;11.50;99969.00;;;;6273728;22;20510;-74
2023/04/13 09:15:23;;;;;;;4.30;1.23;;;10.70;99.90;11.60;99976.00;;;;6250009;22;20155;-75
2023/04/13 09:18:06;;;;;;;6.77;1.50;;;10.50;99.90;11.80;99990.00;;;;6250103;22;20153;-70
2023/04/13 09:20:57;;;;;;;0.80;0.70;;;10.60;99.90;12.30;99948.00;;;;6273885;22;20146;-72
2023/04/13 09:23:38;;;;;;;1.30;0.70;;;10.90;99.90;13.20;100002.00;;;;6275516;22;20152;-72
2023/04/13 09:26:21;;;;;;;1.17;0.50;;;11.20;99.90;12.80;100001.00;;;;6275560;22;20185;-71
2023/04/13 09:29:11;;;;;;;0.50;0.50;;;11.10;99.90;12.60;99998.00;;;;6250387;22;20237;-70
2023/04/13 09:32:07;;;;;;;3.20;1.53;;;11.20;99.90;12.70;100011.00;;;;6274667;22;20150;-75
2023/04/13 09:35:17;;;;;;;0.10;0.10;;;11.00;99.90;14.10;100020.00;;;;6275491;22;20164;-71
2023/04/13 09:37:46;;;;;;;0.60;0.60;;;11.60;99.90;12.90;99940.00;;;;6258468;22;20176;-72
2023/04/13 09:40:47;;;;;;;3.03;1.53;;;11.30;99.90;12.90;100024.00;;;;6275291;22;20668;-71
2023/04/13 09:44:00;;;;;;;0.63;0.43;;;11.10;99.90;12.70;100034.00;;;;6274849;22;20154;-72
2023/04/13 09:46:28;;;;;;;8.33;2.63;;;11.10;99.90;13.10;100025.00;;;;6256973;22;20252;-72
2023/04/13 09:49:13;;;;;;;2.00;1.03;;;11.40;99.90;13.00;100042.00;;;;6250117;22;20480;-72
2023/04/13 09:54:35;;;;;;;5.47;0.50;;;11.70;99.90;14.30;100087.00;;;;6274711;22;20183;-74
2023/04/13 09:57:03;;;;;;;4.73;1.27;;;12.40;99.90;14.10;100093.00;;;;6247291;22;20579;-74
2023/04/13 09:59:59;;;;;;;2.83;0.83;;;12.40;99.90;15.20;100092.00;;;;6249872;22;20184;-74
2023/04/13 10:02:26;;;;;;;3.23;1.03;;;12.90;99.90;15.10;100120.00;;;;6250178;22;20215;-70
2023/04/13 10:04:53;;;;;;;4.10;0.97;;;13.20;99.90;14.70;100110.00;;;;6274532;22;20155;-71
2023/04/13 10:07:28;;;;;;;7.00;2.37;;;12.80;99.90;13.40;100141.00;;;;6224448;22;20486;-71
2023/04/13 10:10:03;;;;;;;0.50;0.50;;;12.20;99.90;13.60;100111.00;;;;6274691;22;20490;-69
2023/04/13 10:12:35;;;;;;;6.87;1.13;;;12.20;99.90;14.40;100043.00;;;;6248299;22;20613;-71
2023/04/13 10:15:35;;;;;;;0.33;0.33;;;12.70;99.90;16.00;100113.00;;;;6274692;22;20611;-74
2023/04/13 10:18:13;;;;;;;1.63;1.13;;;13.10;99.90;15.40;100145.00;;;;6275361;22;20467;-69
2023/04/13 10:20:40;;;;;;;0.30;0.30;;;13.20;99.90;14.40;100170.00;;;;6274007;22;20160;-66
2023/04/13 10:33:30;;;;;;;0.63;0.60;;;12.40;99.90;13.60;100060.00;;;;5110272;27;20659;-68
2023/04/13 10:36:00;;;;;;;1.50;1.33;;;12.20;99.90;14.30;100138.00;;;;5089321;28;20214;-66
2023/04/13 10:38:55;;;;;;;1.17;0.83;;;12.40;99.90;15.50;100152.00;;;;5089109;28;20272;-64
2023/04/13 10:41:28;;;;;;;0.70;0.53;;;13.20;99.90;15.50;100161.00;;;;5099514;28;20217;-68
2023/04/13 10:44:06;;;;;;;5.73;1.37;;;13.40;99.90;15.20;100163.00;;;;5088258;28;20681;-68
2023/04/13 10:46:34;;;;;;;3.70;1.23;;;13.30;99.90;14.90;100195.00;;;;5089155;28;20185;-70
2023/04/13 10:49:20;;;;;;;0.33;0.33;;;13.00;99.90;16.20;100181.00;;;;5088283;28;20245;-70
2023/04/13 10:51:55;;;;;;;0.30;0.27;;;13.60;99.90;16.20;100176.00;;;;5083395;28;20699;-69
2023/04/13 10:54:25;;;;;;;0.40;0.40;;;14.00;99.90;16.80;100151.00;;;;5089058;28;20576;-70
2023/04/13 10:57:07;;;;;;;0.53;0.53;;;14.20;99.90;16.70;100171.00;;;;5087821;28;20504;-69
2023/04/13 10:59:55;;;;;;;0.27;0.27;;;14.70;99.90;16.80;100147.00;;;;5087494;28;20763;-69
2023/04/13 11:02:38;;;;;;;0.10;0.10;;;14.50;99.90;18.70;100124.00;;;;5089080;28;20229;-69
2023/04/13 11:05:19;;;;;;;2.37;1.17;;;15.30;99.90;18.40;100136.00;;;;5089814;28;20242;-70
2023/04/13 11:08:03;;;;;;;0.90;0.83;;;16.10;99.90;16.10;100145.00;;;;5079969;28;20196;-69
2023/04/13 11:10:30;;;;;;;0.50;0.50;;;14.50;99.90;17.70;100162.00;;;;5104910;28;20185;-69
2023/04/13 11:13:36;;;;;;;3.33;1.57;;;14.60;99.90;15.10;100209.00;;;;5089793;28;20246;-69
2023/04/13 11:16:25;;;;;;;3.70;1.33;;;14.20;99.90;16.40;100191.00;;;;5079499;28;20652;-68
2023/04/13 11:19:20;;;;;;;0.20;0.20;;;13.90;99.90;17.50;100175.00;;;;5094912;28;20265;-69
2023/04/13 11:21:54;;;;;;;1.33;0.43;;;14.50;99.90;15.80;100200.00;;;;5067572;28;20197;-69
2023/04/13 11:24:32;;;;;;;1.50;0.60;;;14.20;99.90;16.00;100216.00;;;;5071930;28;20636;-69
2023/04/13 11:26:59;;;;;;;0.50;0.50;;;13.90;99.90;17.40;100163.00;;;;5087738;28;20188;-68
2023/04/13 11:29:26;;;;;;;3.47;0.87;;;14.40;99.90;16.20;100197.00;;;;5088016;28;20664;-68
2023/04/13 11:31:52;;;;;;;0.60;0.60;;;14.40;99.90;15.40;100192.00;;;;5087866;28;20215;-69
2023/04/13 11:34:32;;;;;;;3.40;0.70;;;14.00;99.90;15.70;100220.00;;;;5089428;28;20236;-68
2023/04/13 11:37:13;;;;;;;1.33;0.70;;;13.90;99.90;16.60;100191.00;;;;5088498;28;20184;-69
2023/04/13 11:39:50;;;;;;;0.10;0.10;;;14.40;99.90;16.60;100197.00;;;;5087674;28;20187;-69
2023/04/13 11:42:32;;;;;;;1.33;0.90;;;14.30;99.90;15.90;100216.00;;;;5087677;28;20192;-69
2023/04/13 11:44:58;;;;;;;1.27;0.70;;;14.20;99.90;15.70;100238.00;;;;5074311;28;20182;-68
2023/04/13 11:47:44;;;;;;;0.67;0.67;;;14.00;99.90;15.00;100254.00;;;;5091780;28;20191;-70
2023/04/13 11:50:16;;;;;;;0.30;0.30;;;13.30;99.90;16.30;100232.00;;;;5073782;28;20702;-70
2023/04/13 11:52:45;;;;;;;1.77;0.93;;;13.50;99.90;15.30;100249.00;;;;5062731;28;20207;-68
2023/04/13 11:55:15;;;;;;;1.37;0.67;;;13.60;99.90;16.20;100224.00;;;;5072506;28;20641;-67
2023/04/13 11:57:41;;;;;;;0.83;0.50;;;13.70;99.90;16.20;100215.00;;;;5074958;28;20556;-70
2023/04/13 12:00:21;;;;;;;1.93;0.37;;;13.90;99.90;16.00;100233.00;;;;5073126;28;20706;-70
2023/04/13 12:03:00;;;;;;;0.83;0.63;;;14.00;99.90;15.40;100237.00;;;;5073869;28;20286;-70
2023/04/13 12:05:28;;;;;;;0.60;0.50;;;13.60;99.90;16.30;100219.00;;;;5074328;28;20196;-71
2023/04/13 12:08:28;;;;;;;1.43;0.77;;;13.90;99.90;16.90;100187.00;;;;5074698;28;20185;-70
2023/04/13 12:11:09;;;;;;;4.33;0.63;;;14.70;99.90;16.30;100231.00;;;;5081609;28;20189;-72
2023/04/13 12:13:58;;;;;;;5.00;0.80;;;14.50;99.90;15.80;100245.00;;;;5067671;28;20192;-76
2023/04/13 12:16:33;;;;;;;2.30;0.57;;;14.30;99.90;15.90;100169.00;;;;5073791;28;20178;-74
2023/04/13 12:19:10;;;;;;;2.10;0.50;;;13.80;99.90;15.50;100249.00;;;;5074028;28;20186;-75
2023/04/13 12:21:38;;;;;;;0.20;0.20;;;13.90;99.90;16.60;100237.00;;;;5061998;28;20183;-68
2023/04/13 12:24:14;;;;;;;3.63;0.43;;;14.20;99.90;16.30;100237.00;;;;5072774;28;20635;-68
2023/04/13 12:26:46;;;;;;;0.73;0.40;;;14.50;99.90;16.30;100250.00;;;;5063003;28;20217;-68
2023/04/13 12:29:17;;;;;;;1.03;1.03;;;14.30;99.90;17.40;100170.00;;;;5073936;28;20261;-69
2023/04/13 12:31:44;;;;;;;2.53;0.53;;;14.70;99.90;16.80;100247.00;;;;5087306;28;20224;-68
2023/04/13 12:34:16;;;;;;;6.23;0.63;;;14.60;99.90;16.60;100245.00;;;;5080349;28;20191;-69
2023/04/13 12:36:51;;;;;;;0.40;0.40;;;14.70;99.90;17.80;100250.00;;;;5079899;28;20237;-68
2023/04/13 12:39:18;;;;;;;0.43;0.43;;;14.90;99.90;16.70;100280.00;;;;5081439;28;20654;-68
2023/04/13 12:41:44;;;;;;;2.00;0.70;;;14.70;99.90;16.10;100264.00;;;;5082785;28;20261;-69
2023/04/13 12:44:14;;;;;;;0.43;0.30;;;14.60;99.90;16.50;100318.00;;;;5080559;28;20638;-64
2023/04/13 12:46:43;;;;;;;2.10;2.00;;;14.60;99.90;16.10;100227.00;;;;5082734;28;20191;-68
2023/04/13 12:49:09;;;;;;;0.60;0.30;;;14.30;99.90;15.80;100261.00;;;;5084629;28;20193;-68
2023/04/13 12:51:35;;;;;;;1.07;0.30;;;14.20;99.90;16.50;100259.00;;;;5078116;28;20207;-67
2023/04/13 12:54:12;;;;;;;0.43;0.43;;;14.30;99.90;16.80;100265.00;;;;5071932;28;20294;-70
2023/04/13 12:56:48;;;;;;;0.80;0.53;;;14.60;99.90;16.20;100199.00;;;;5072675;28;20263;-70
2023/04/13 12:59:34;;;;;;;0.47;0.30;;;14.50;99.90;15.80;100260.00;;;;5073121;28;20184;-70
2023/04/13 13:02:41;;;;;;;0.53;0.30;;;14.20;99.90;17.00;100252.00;;;;5072225;28;20674;-69
2023/04/13 13:05:20;;;;;;;0.30;0.20;;;14.50;99.90;17.80;100253.00;;;;5065342;28;20197;-70
2023/04/13 13:08:10;;;;;;;1.93;0.80;;;15.10;99.90;16.30;100191.00;;;;5072792;28;20635;-69
2023/04/13 13:11:06;;;;;;;6.43;0.60;;;14.40;99.90;16.20;100270.00;;;;4994586;28;20202;-70
2023/04/13 13:14:00;;;;;;;0.43;0.30;;;14.20;99.90;16.80;100273.00;;;;4993437;28;20202;-69
2023/04/13 13:16:51;;;;;;;1.37;0.43;;;14.50;99.90;15.40;100288.00;;;;5066278;28;20204;-70
2023/04/13 13:19:43;;;;;;;0.57;0.30;;;14.20;99.90;17.00;100261.00;;;;5072536;28;20215;-70
2023/04/13 13:22:24;;;;;;;0.20;0.20;;;14.40;99.90;17.70;100264.00;;;;5071049;28;20260;-70
2023/04/13 13:25:35;;;;;;;0.30;0.30;;;14.90;99.90;18.00;100243.00;;;;5072290;28;20181;-70
2023/04/13 13:28:17;;;;;;;1.50;0.30;;;15.00;99.90;17.30;100208.00;;;;5067990;28;20525;-70
2023/04/13 13:31:09;;;;;;;1.50;0.30;;;15.30;99.90;17.40;100282.00;;;;5072937;28;20191;-69
2023/04/13 13:33:55;;;;;;;0.10;0.10;;;15.00;99.90;18.80;100255.00;;;;5084402;28;20283;-70
2023/04/13 13:36:45;;;;;;;0.40;0.40;;;15.50;99.90;19.10;100258.00;;;;5064225;28;20548;-69
2023/04/13 13:39:26;;;;;;;0.10;0.10;;;16.00;99.90;19.30;100288.00;;;;5060553;28;20239;-70
2023/04/13 13:42:23;;;;;;;0.23;0.23;;;16.20;99.90;17.30;100242.00;;;;5072100;28;20177;-69
2023/04/13 13:45:15;;;;;;;0.10;0.10;;;15.20;99.90;18.10;100299.00;;;;5061459;28;20191;-69
2023/04/13 13:48:16;;;;;;;1.70;0.57;;;15.10;99.90;16.10;100340.00;;;;5061221;28;20199;-69
2023/04/13 13:51:11;;;;;;;0.20;0.20;;;14.80;99.90;16.70;100353.00;;;;5050619;28;20191;-69
2023/04/13 13:53:56;;;;;;;0.20;0.20;;;14.60;99.90;18.00;100344.00;;;;5065821;28;21012;-66
2023/04/13 13:56:41;;;;;;;0.30;0.30;;;15.10;99.90;17.80;100337.00;;;;5062481;28;20199;-73
2023/04/13 13:59:18;;;;;;;3.70;0.90;;;15.40;99.90;16.60;100348.00;;;;5059950;28;20193;-72
2023/04/13 14:01:53;;;;;;;0.60;0.60;;;14.90;99.90;17.20;100318.00;;;;5066812;28;20662;-72
2023/04/13 14:04:59;;;;;;;0.20;0.20;;;14.80;99.90;17.60;100354.00;;;;5071342;28;21106;-72
2023/04/13 14:07:49;;;;;;;0.10;0.10;;;15.00;99.90;16.90;100356.00;;;;5066335;28;20201;-69
2023/04/13 14:10:21;;;;;;;0.20;0.20;;;14.70;99.90;17.60;100353.00;;;;5059745;28;20204;-73
2023/04/13 14:13:10;;;;;;;0.50;0.30;;;15.00;99.90;16.60;100379.00;;;;5081167;28;20203;-71
2023/04/13 14:15:42;;;;;;;0.90;0.80;;;14.70;99.90;17.10;100347.00;;;;5062632;28;20220;-73
2023/04/13 14:18:11;;;;;;;1.67;0.70;;;14.70;99.90;15.90;100341.00;;;;5071922;28;20521;-75
2023/04/13 14:21:06;;;;;;;1.50;0.67;;;14.40;99.90;16.30;100386.00;;;;5069916;28;20232;-76
2023/04/13 14:23:42;;;;;;;0.10;0.10;;;14.30;99.90;17.00;100398.00;;;;5065737;28;20191;-73
2023/04/13 14:26:08;;;;;;;1.23;0.40;;;14.30;99.90;15.80;100369.00;;;;5071706;28;20185;-74
2023/04/13 14:28:59;;;;;;;1.93;0.50;;;14.00;99.90;17.00;100398.00;;;;5070510;28;20181;-73
2023/04/13 14:31:41;;;;;;;0.70;0.50;;;14.20;99.90;17.00;100400.00;;;;5061749;28;20244;-73
2023/04/13 14:34:10;;;;;;;3.77;0.63;;;14.40;99.90;16.10;100412.00;;;;5069537;28;20182;-73
2023/04/13 14:36:36;;;;;;;0.20;0.20;;;14.40;99.90;17.10;100413.00;;;;5071500;28;20184;-72
2023/04/13 14:39:03;;;;;;;0.87;0.70;;;14.50;99.90;17.00;100424.00;;;;5071859;28;20190;-73
2023/04/13 14:41:29;;;;;;;2.27;0.90;;;14.70;99.90;16.40;100420.00;;;;5071537;28;20190;-73
2023/04/13 14:44:07;;;;;;;0.17;0.17;;;14.50;99.90;16.70;100420.00;;;;5071499;28;20192;-73
2023/04/13 14:46:36;;;;;;;0.67;0.50;;;14.40;99.90;16.60;100405.00;;;;5070497;28;20197;-73
2023/04/13 14:49:04;;;;;;;0.33;0.33;;;14.40;99.90;17.10;100422.00;;;;5087507;28;20188;-73
2023/04/13 14:51:30;;;;;;;2.70;0.70;;;14.50;99.90;17.50;100408.00;;;;5067873;28;20211;-73
2023/04/13 14:53:57;;;;;;;0.60;0.60;;;14.70;99.90;17.40;100424.00;;;;5071365;28;20637;-73
2023/04/13 14:56:42;;;;;;;1.70;0.50;;;14.90;99.90;17.60;100419.00;;;;5071509;28;20643;-72
2023/04/13 14:59:15;;;;;;;0.17;0.17;;;15.10;99.90;16.80;100426.00;;;;5071343;28;20175;-73
2023/04/13 15:01:41;;;;;;;0.10;0.10;;;14.80;99.90;18.10;100402.00;;;;5065358;28;20672;-73
2023/04/13 15:04:35;;;;;;;2.17;0.80;;;15.10;99.90;17.10;100412.00;;;;5071399;28;20639;-73
2023/04/13 15:07:02;;;;;;;2.97;0.57;;;15.00;99.90;17.80;100422.00;;;;5055089;28;20191;-73
2023/04/13 15:09:40;;;;;;;2.20;0.30;;;15.10;99.90;17.80;100409.00;;;;5071041;28;20188;-73
2023/04/13 15:12:44;;;;;;;0.40;0.23;;;15.20;99.90;17.10;100426.00;;;;5071338;28;20630;-72
2023/04/13 15:15:20;;;;;;;0.30;0.30;;;14.70;99.90;17.40;100413.00;;;;5080674;28;20684;-71
2023/04/13 15:17:46;;;;;;;0.47;0.47;;;14.80;99.90;17.30;100412.00;;;;5075517;28;20284;-74
2023/04/13 15:20:12;;;;;;;0.10;0.10;;;14.80;99.90;17.50;100410.00;;;;5091141;28;20598;-75
2023/04/13 15:22:37;;;;;;;0.67;0.63;;;15.00;99.90;16.80;100428.00;;;;5075229;28;20178;-75
2023/04/13 15:25:04;;;;;;;0.30;0.30;;;14.80;99.90;17.10;100432.00;;;;5058245;28;20630;-75
2023/04/13 15:27:37;;;;;;;0.37;0.37;;;14.70;99.90;16.80;100411.00;;;;5075069;28;20190;-74
2023/04/13 15:30:08;;;;;;;0.20;0.20;;;14.50;99.90;17.00;100436.00;;;;5071553;28;20189;-75
2023/04/13 15:32:35;;;;;;;0.10;0.10;;;14.60;99.90;16.90;100422.00;;;;5071073;28;20218;-74
2023/04/13 15:35:07;;;;;;;0.43;0.43;;;14.60;99.90;16.90;100425.00;;;;5074271;28;20321;-74
2023/04/13 15:37:50;;;;;;;0.57;0.37;;;14.80;99.90;16.60;100441.00;;;;5076147;28;20194;-75
2023/04/13 15:40:26;;;;;;;3.80;0.93;;;14.40;99.90;16.30;100440.00;;;;5066940;28;20277;-75
2023/04/13 15:43:02;;;;;;;1.00;0.57;;;14.30;99.90;16.40;100434.00;;;;5074662;28;20185;-75
2023/04/13 15:45:31;;;;;;;0.30;0.30;;;14.30;99.90;16.30;100444.00;;;;5074477;28;20212;-76
2023/04/13 15:47:57;;;;;;;0.20;0.20;;;14.20;99.90;17.20;100371.00;;;;5073854;28;20564;-75
2023/04/13 15:50:23;;;;;;;0.13;0.13;;;14.40;99.90;17.90;100439.00;;;;5071526;28;20192;-75
2023/04/13 15:52:56;;;;;;;0.83;0.83;;;14.80;99.90;17.00;100435.00;;;;5075101;28;20674;-74
2023/04/13 15:55:49;;;;;;;3.67;0.80;;;14.70;99.90;16.70;100452.00;;;;5075386;28;20199;-75
2023/04/13 15:58:15;;;;;;;0.20;0.20;;;14.60;99.90;16.30;100468.00;;;;5074418;28;20184;-75
2023/04/13 16:00:44;;;;;;;0.63;0.60;;;14.30;99.90;15.50;100458.00;;;;5075293;28;20644;-76
2023/04/13 16:03:35;;;;;;;0.20;0.20;;;13.80;99.90;15.90;100464.00;;;;5073992;28;20194;-76
2023/04/13 16:06:02;;;;;;;0.10;0.10;;;13.80;99.90;17.40;100463.00;;;;5069397;28;20541;-75
2023/04/13 16:08:32;;;;;;;0.17;0.17;;;14.20;99.90;18.20;100462.00;;;;5075497;28;20195;-75
2023/04/13 16:11:22;;;;;;;1.43;0.90;;;14.70;99.90;17.30;100459.00;;;;5057306;28;20542;-74
2023/04/13 16:13:48;;;;;;;0.10;0.10;;;14.70;99.90;17.10;100451.00;;;;5066270;28;20213;-74
2023/04/13 16:16:17;;;;;;;4.57;1.00;;;14.70;99.90;15.60;100469.00;;;;5073227;28;20191;-74
2023/04/13 16:18:48;;;;;;;0.27;0.27;;;14.10;99.90;16.40;100487.00;;;;5075374;28;20232;-74
2023/04/13 16:21:18;;;;;;;1.47;0.70;;;14.10;99.90;15.60;100469.00;;;;5075158;28;20199;-74
2023/04/13 16:24:01;;;;;;;0.10;0.10;;;14.00;99.90;17.10;100477.00;;;;5074084;28;20202;-74
2023/04/13 16:26:38;;;;;;;0.10;0.10;;;14.10;99.90;16.90;100480.00;;;;5073789;28;20190;-74
2023/04/13 16:29:04;;;;;;;3.03;0.90;;;14.30;99.90;16.20;100497.00;;;;5071802;28;20433;-74
2023/04/13 16:31:30;;;;;;;0.37;0.30;;;14.10;99.90;16.40;100511.00;;;;5072311;28;20297;-74
2023/04/13 16:33:56;;;;;;;1.13;0.80;;;14.10;99.90;16.00;100503.00;;;;5075045;28;20213;-75
2023/04/13 16:36:26;;;;;;;4.70;1.70;;;14.00;99.90;17.10;100492.00;;;;5073705;28;20182;-75
2023/04/13 16:39:06;;;;;;;0.63;0.63;;;14.20;99.90;17.10;100488.00;;;;5073333;28;20186;-74
2023/04/13 16:41:33;;;;;;;0.20;0.20;;;14.50;99.90;16.00;100514.00;;;;5072774;28;20177;-75
2023/04/13 16:44:12;;;;;;;3.10;1.23;;;14.20;99.90;17.00;100501.00;;;;5072607;28;20190;-74
2023/04/13 16:46:38;;;;;;;1.30;0.67;;;14.30;99.90;17.10;100482.00;;;;5072873;28;20629;-74
2023/04/13 16:49:07;;;;;;;4.60;0.80;;;14.30;99.90;16.30;100450.00;;;;5074425;28;20190;-74
2023/04/13 16:52:28;;;;;;;7.63;2.70;;;14.20;99.90;16.70;100509.00;;;;5075728;28;20235;-75
2023/04/13 16:54:57;;;;;;;0.67;0.37;;;14.20;99.90;16.70;100437.00;;;;5089881;28;20297;-74
2023/04/13 16:57:27;;;;;;;2.77;0.60;;;14.30;99.90;16.40;100514.00;;;;5073087;28;20189;-74
2023/04/13 16:59:54;;;;;;;0.33;0.33;;;14.10;99.90;15.90;100522.00;;;;5066706;28;20209;-74
2023/04/13 17:02:20;;;;;;;8.60;1.13;;;13.70;99.90;15.20;100526.00;;;;5085438;28;20194;-74
2023/04/13 17:04:46;;;;;;;0.83;0.50;;;13.40;99.90;15.80;100533.00;;;;5074131;28;20205;-73
2023/04/13 17:07:12;;;;;;;0.67;0.30;;;13.40;99.90;16.30;100520.00;;;;5073176;28;20217;-74
2023/04/13 17:09:41;;;;;;;0.43;0.43;;;13.50;99.90;15.50;100453.00;;;;5072932;28;20246;-74
2023/04/13 17:12:12;;;;;;;0.10;0.10;;;13.30;99.90;16.40;100517.00;;;;5072942;28;20288;-75
2023/04/13 17:14:49;;;;;;;0.63;0.63;;;13.30;99.90;15.30;100461.00;;;;5071863;28;20521;-74
2023/04/13 17:17:23;;;;;;;0.53;0.40;;;13.10;99.90;16.20;100535.00;;;;5058980;28;20247;-74
2023/04/13 17:19:54;;;;;;;0.20;0.20;;;13.20;99.90;15.50;100549.00;;;;5056549;28;20177;-72
2023/04/13 17:22:41;;;;;;;0.27;0.27;;;13.10;99.90;14.70;100554.00;;;;5089642;28;20238;-72
2023/04/13 17:25:10;;;;;;;0.27;0.27;;;12.90;99.90;16.10;100534.00;;;;5072753;28;20559;-72
2023/04/13 17:28:06;;;;;;;0.43;0.43;;;13.00;99.90;16.20;100532.00;;;;5072777;28;20196;-72
2023/04/13 17:30:40;;;;;;;7.63;1.30;;;13.00;99.90;16.80;100529.00;;;;5048951;28;20198;-71
2023/04/13 17:33:08;;;;;;;0.57;0.27;;;13.40;99.90;16.40;100545.00;;;;5069516;28;20213;-71
2023/04/13 17:35:57;;;;;;;0.30;0.30;;;13.50;99.90;16.90;100538.00;;;;5054594;28;20192;-71
2023/04/13 17:38:34;;;;;;;0.30;0.30;;;13.50;99.90;16.70;100526.00;;;;5089572;28;20192;-71
2023/04/13 17:41:33;;;;;;;3.17;1.57;;;13.60;99.90;16.60;100553.00;;;;5071505;28;20542;-71
2023/04/13 17:44:16;;;;;;;7.20;0.93;;;13.40;99.90;16.20;100537.00;;;;5062283;28;20685;-71
2023/04/13 17:46:49;;;;;;;5.20;0.30;;;13.20;99.90;16.40;100560.00;;;;5072099;28;20183;-72
2023/04/13 17:49:36;;;;;;;0.10;0.10;;;13.10;99.90;15.30;100569.00;;;;5072062;28;20619;-70
2023/04/13 17:52:22;;;;;;;12.53;0.70;;;12.80;99.90;16.00;100573.00;;;;5071151;28;20239;-70
2023/04/13 17:55:06;;;;;;;0.30;0.30;;;12.70;99.90;15.90;100567.00;;;;5071989;28;20201;-70
2023/04/13 17:58:01;;;;;;;0.37;0.37;;;12.80;99.90;15.70;100591.00;;;;5085797;28;20213;-71
2023/04/13 18:00:32;;;;;;;0.33;0.33;;;12.70;99.90;15.70;100597.00;;;;5055400;28;20607;-71
2023/04/13 18:03:10;;;;;;;4.07;0.90;;;12.80;99.90;15.80;100597.00;;;;5070195;28;20198;-74
2023/04/13 18:06:01;;;;;;;1.13;1.13;;;12.70;99.90;15.40;100598.00;;;;5071769;28;20240;-72
2023/04/13 18:09:08;;;;;;;0.63;0.27;;;12.80;99.90;15.20;100615.00;;;;5071674;28;20188;-72
2023/04/13 18:12:15;;;;;;;0.10;0.10;;;12.40;99.90;15.20;100603.00;;;;5070491;28;20569;-72
2023/04/13 18:14:58;;;;;;;0.63;0.47;;;12.50;99.90;15.30;100577.00;;;;5070969;28;20200;-72
2023/04/13 18:17:52;;;;;;;0.10;0.10;;;12.40;99.90;14.50;100644.00;;;;5064419;28;20223;-72
2023/04/13 18:20:36;;;;;;;0.50;0.23;;;12.20;99.90;14.60;100652.00;;;;5071870;28;20685;-73
2023/04/13 18:23:27;;;;;;;0.10;0.10;;;12.10;99.90;14.80;100650.00;;;;5067649;28;20185;-73
2023/04/13 18:25:56;;;;;;;0.40;0.37;;;12.00;99.90;14.60;100671.00;;;;5025780;28;20201;-73
2023/04/13 18:28:33;;;;;;;0.30;0.30;;;12.00;99.90;14.40;100671.00;;;;5065301;28;20197;-75
2023/04/13 18:31:24;;;;;;;0.10;0.10;;;11.70;99.90;14.80;100668.00;;;;5070541;28;20590;-74
2023/04/13 18:33:58;;;;;;;0.10;0.10;;;11.80;99.90;14.50;100686.00;;;;5072009;28;20268;-74
2023/04/13 18:36:48;;;;;;;0.20;0.20;;;11.70;99.90;15.00;100662.00;;;;5088124;28;20593;-73
2023/04/13 18:39:38;;;;;;;0.10;0.10;;;11.80;99.90;14.10;100721.00;;;;5070966;28;20669;-75
2023/04/13 18:42:13;;;;;;;0.20;0.20;;;11.80;99.90;15.10;100707.00;;;;5054037;28;20637;-69
2023/04/13 18:45:02;;;;;;;0.10;0.10;;;11.80;99.90;14.80;100703.00;;;;5062189;28;20221;-71
2023/04/13 18:47:55;;;;;;;0.10;0.10;;;11.80;99.90;14.70;100704.00;;;;5087424;28;20177;-75
2023/04/13 18:51:02;;;;;;;0.20;0.20;;;11.60;99.90;13.80;100688.00;;;;5071835;28;20189;-74
2023/04/13 18:54:10;;;;;;;3.07;0.73;;;11.50;99.90;13.90;100735.00;;;;5069842;28;20556;-76